Time;durP1;ratioP1;P1;durP2;ratioP2;P2;SDS_P1;SDS_P2;PMS_P1;PMS_P2;Temp;Humidity;BMP_temperature;BMP_pressure;BME280_temperature;BME280_humidity;BME280_pressure;Samples;Min_cycle;Max_cycle;Signal;HPM_P1;HPM_P2
2023/08/30 00:01:26;;;;;;;;;;;;;;;-144.99;100.00;52346.19;5023548;28;20016;-73
2023/08/30 00:03:52;;;;;;;;;;;;;;;-144.99;100.00;52356.38;5020232;28;19961;-72
2023/08/30 00:06:19;;;;;;;;;;;;;;;-144.99;100.00;52333.94;5028417;28;20081;-73
2023/08/30 00:08:45;;;;;;;;;;;;;;;-144.99;100.00;52325.81;5020639;28;19986;-72
2023/08/30 00:11:13;;;;;;;;;;;;;;;-144.99;100.00;52356.38;5024729;28;20011;-73
2023/08/30 00:13:40;;;;;;;;;;;;;;;-144.99;100.00;52331.91;5028609;28;20004;-73
2023/08/30 00:16:07;;;;;;;;;;;;;;;-144.99;100.00;52354.34;5020636;28;19939;-72
2023/08/30 00:18:33;;;;;;;;;;;;;;;-144.99;100.00;52342.09;5028932;28;20369;-73
2023/08/30 00:21:00;;;;;;;;;;;;;;;-144.99;100.00;52333.94;5021273;28;20024;-73
2023/08/30 00:23:26;;;;;;;;;;;;;;;-144.99;100.00;52346.19;5027531;28;20377;-73
2023/08/30 00:25:53;;;;;;;;;;;;;;;-144.99;100.00;52321.72;5021492;28;19968;-73
2023/08/30 00:28:20;;;;;;;;;;;;;;;-144.99;100.00;52317.66;5025621;28;19956;-74
2023/08/30 00:30:47;;;;;;;;;;;;;;;-144.99;100.00;52331.91;5028086;28;20373;-74
2023/08/30 00:33:13;;;;;;;;;;;;;;;-144.99;100.00;52317.66;5025868;28;20458;-73
2023/08/30 00:35:40;;;;;;;;;;;;;;;-144.99;100.00;52350.25;5027780;28;20043;-73
2023/08/30 00:38:06;;;;;;;;;;;;;;;-144.99;100.00;52333.94;5024766;28;20028;-74
2023/08/30 00:40:38;;;;;;;;;;;;;;;-144.99;100.00;52342.09;5028060;28;19994;-69
2023/08/30 00:43:05;;;;;;;;;;;;;;;-144.99;100.00;52325.81;5022067;28;20036;-70
2023/08/30 00:45:33;;;;;;;;;;;;;;;-144.99;100.00;52358.41;5029682;28;19961;-69
2023/08/30 00:47:59;;;;;;;;;;;;;;;-144.99;100.00;52321.72;5028008;28;20038;-72
2023/08/30 00:50:26;;;;;;;;;;;;;;;-144.99;100.00;52321.72;5030181;28;20056;-69
2023/08/30 00:52:52;;;;;;;;;;;;;;;-144.99;100.00;52329.88;5025387;28;20058;-71
2023/08/30 00:55:19;;;;;;;;;;;;;;;-144.99;100.00;52356.38;5025781;28;20366;-71
2023/08/30 00:57:46;;;;;;;;;;;;;;;-144.99;100.00;52321.72;5018428;28;19946;-70
2023/08/30 01:00:12;;;;;;;;;;;;;;;-144.99;100.00;52342.09;5020621;28;19942;-68
2023/08/30 01:02:40;;;;;;;;;;;;;;;-144.99;100.00;52325.81;5025500;28;19953;-71
2023/08/30 01:05:07;;;;;;;;;;;;;;;-144.99;100.00;52325.81;5020486;28;20055;-70
2023/08/30 01:07:33;;;;;;;;;;;;;;;-144.99;100.00;52346.19;5027826;28;20335;-68
2023/08/30 01:10:00;;;;;;;;;;;;;;;-144.99;100.00;52313.56;5019915;28;20043;-74
2023/08/30 01:12:30;;;;;;;;;;;;;;;-144.99;100.00;52329.88;5025873;28;19962;-71
2023/08/30 01:14:59;;;;;;;;;;;;;;;-144.99;100.00;52319.69;5023232;28;19941;-65
2023/08/30 01:17:25;;;;;;;;;;;;;;;-144.99;100.00;52325.81;5026126;28;19941;-64
2023/08/30 01:19:57;;;;;;;;;;;;;;;-144.99;100.00;52333.94;5025501;28;19977;-65
2023/08/30 01:22:30;;;;;;;;;;;;;;;-144.99;100.00;52317.66;5024405;28;20062;-66
2023/08/30 01:25:03;;;;;;;;;;;;;;;-144.99;100.00;52321.72;5026829;28;20135;-64
2023/08/30 01:27:34;;;;;;;;;;;;;;;-144.99;100.00;52352.28;5027428;28;20424;-64
2023/08/30 01:30:02;;;;;;;;;;;;;;;-144.99;100.00;52329.88;5019312;28;20413;-64
2023/08/30 01:32:30;;;;;;;;;;;;;;;-144.99;100.00;52325.81;5025904;28;20460;-69
2023/08/30 01:34:57;;;;;;;;;;;;;;;-144.99;100.00;52331.91;5026110;28;20412;-69
2023/08/30 01:37:25;;;;;;;;;;;;;;;-144.99;100.00;52321.72;5027470;28;19948;-69
2023/08/30 01:39:53;;;;;;;;;;;;;;;-144.99;100.00;52313.56;5028255;28;19943;-69
2023/08/30 01:42:22;;;;;;;;;;;;;;;-144.99;100.00;52333.94;5026230;28;20369;-66
2023/08/30 01:44:51;;;;;;;;;;;;;;;-144.99;100.00;52333.94;5022174;28;19973;-66
2023/08/30 01:47:19;;;;;;;;;;;;;;;-144.99;100.00;52325.81;5027471;28;19979;-65
2023/08/30 01:49:45;;;;;;;;;;;;;;;-144.99;100.00;52358.41;5026666;28;19949;-65
2023/08/30 01:52:12;;;;;;;;;;;;;;;-144.99;100.00;52325.81;5027432;28;20055;-66
2023/08/30 01:54:40;;;;;;;;;;;;;;;-144.99;100.00;52342.09;5024612;28;19944;-66
2023/08/30 01:57:06;;;;;;;;;;;;;;;-144.99;100.00;52327.84;5027723;28;20032;-66
2023/08/30 01:59:33;;;;;;;;;;;;;;;-144.99;100.00;52340.06;5020624;28;19966;-65
2023/08/30 02:02:00;;;;;;;;;;;;;;;-144.99;100.00;52342.09;5027206;28;20027;-69
2023/08/30 02:04:27;;;;;;;;;;;;;;;-144.99;100.00;52325.81;5024841;28;19967;-68
2023/08/30 02:06:57;;;;;;;;;;;;;;;-144.99;100.00;52321.72;5026518;28;19970;-73
2023/08/30 02:09:26;;;;;;;;;;;;;;;-144.99;100.00;52342.09;5030978;28;20376;-67
2023/08/30 02:11:53;;;;;;;;;;;;;;;-144.99;100.00;52333.94;5018248;28;20098;-70
2023/08/30 02:14:21;;;;;;;;;;;;;;;-144.99;100.00;52346.19;5029652;28;20044;-66
2023/08/30 02:16:48;;;;;;;;;;;;;;;-144.99;100.00;52313.56;5029081;28;20120;-66
2023/08/30 02:19:16;;;;;;;;;;;;;;;-144.99;100.00;52338.03;5030614;28;19978;-66
2023/08/30 02:21:43;;;;;;;;;;;;;;;-144.99;100.00;52333.94;5030435;28;19947;-68
2023/08/30 02:24:10;;;;;;;;;;;;;;;-144.99;100.00;52348.22;5030200;28;20046;-67
2023/08/30 02:26:36;;;;;;;;;;;;;;;-144.99;100.00;52338.03;5026738;28;20060;-67
2023/08/30 02:29:03;;;;;;;;;;;;;;;-144.99;100.00;52299.31;5026869;28;19942;-67
2023/08/30 02:31:29;;;;;;;;;;;;;;;-144.99;100.00;52305.41;5026137;28;19938;-69
2023/08/30 02:33:56;;;;;;;;;;;;;;;-144.99;100.00;52333.94;5022624;28;20055;-66
2023/08/30 02:36:24;;;;;;;;;;;;;;;-144.99;100.00;52325.81;5024288;28;20475;-66
2023/08/30 02:38:50;;;;;;;;;;;;;;;-144.99;100.00;52313.56;5029559;28;20030;-69
2023/08/30 02:41:17;;;;;;;;;;;;;;;-144.99;100.00;52297.25;5027722;28;19943;-67
2023/08/30 02:43:43;;;;;;;;;;;;;;;-144.99;100.00;52362.50;5029158;28;20439;-67
2023/08/30 02:46:10;;;;;;;;;;;;;;;-144.99;100.00;52346.19;5029338;28;19955;-67
2023/08/30 02:48:36;;;;;;;;;;;;;;;-144.99;100.00;52325.81;5026800;28;19990;-72
2023/08/30 02:51:03;;;;;;;;;;;;;;;-144.99;100.00;52333.94;5029830;28;19951;-71
2023/08/30 02:53:30;;;;;;;;;;;;;;;-144.99;100.00;52325.81;5029858;28;19964;-71
2023/08/30 02:55:57;;;;;;;;;;;;;;;-144.99;100.00;52362.50;5030319;28;20031;-71
2023/08/30 02:58:23;;;;;;;;;;;;;;;-144.99;100.00;52342.09;5026834;28;19944;-73
2023/08/30 03:00:50;;;;;;;;;;;;;;;-144.99;100.00;52329.88;5030018;28;19942;-69
2023/08/30 03:03:17;;;;;;;;;;;;;;;-144.99;100.00;52350.25;5029104;28;20415;-69
2023/08/30 03:05:43;;;;;;;;;;;;;;;-144.99;100.00;52317.66;5029172;28;20158;-67
2023/08/30 03:08:10;;;;;;;;;;;;;;;-144.99;100.00;52301.34;5028115;28;20308;-67
2023/08/30 03:10:38;;;;;;;;;;;;;;;-144.99;100.00;52295.22;5027850;28;19947;-68
2023/08/30 03:13:04;;;;;;;;;;;;;;;-144.99;100.00;52315.59;5029603;28;19955;-68
2023/08/30 03:15:31;;;;;;;;;;;;;;;-144.99;100.00;52305.41;5024533;28;20384;-67
2023/08/30 03:17:58;;;;;;;;;;;;;;;-144.99;100.00;52331.91;5027033;28;19978;-68
2023/08/30 03:20:24;;;;;;;;;;;;;;;-144.99;100.00;52313.56;5026217;28;19982;-68
2023/08/30 03:22:51;;;;;;;;;;;;;;;-144.99;100.00;52315.59;5029441;28;19997;-69
2023/08/30 03:25:17;;;;;;;;;;;;;;;-144.99;100.00;52309.50;5029607;28;19959;-71
2023/08/30 03:27:45;;;;;;;;;;;;;;;-144.99;100.00;52333.94;5028443;28;19977;-70
2023/08/30 03:30:12;;;;;;;;;;;;;;;-144.99;100.00;52366.56;5026513;28;20007;-72
2023/08/30 03:32:39;;;;;;;;;;;;;;;-144.99;100.00;52309.50;5029074;28;20040;-70
2023/08/30 03:35:06;;;;;;;;;;;;;;;-144.99;100.00;52325.81;5028943;28;19942;-72
2023/08/30 03:37:33;;;;;;;;;;;;;;;-144.99;100.00;52336.00;5027983;28;19943;-72
2023/08/30 03:39:59;;;;;;;;;;;;;;;-144.99;100.00;52325.81;5027896;28;20012;-70
2023/08/30 03:42:26;;;;;;;;;;;;;;;-144.99;100.00;52344.16;5027779;28;19953;-70
2023/08/30 03:44:54;;;;;;;;;;;;;;;-144.99;100.00;52325.81;5028703;28;20389;-70
2023/08/30 03:47:21;;;;;;;;;;;;;;;-144.99;100.00;52360.44;5028099;28;19953;-69
2023/08/30 03:49:47;;;;;;;;;;;;;;;-144.99;100.00;52309.50;5024369;28;20363;-69
2023/08/30 03:52:14;;;;;;;;;;;;;;;-144.99;100.00;52321.72;5028587;28;20040;-70
2023/08/30 03:54:40;;;;;;;;;;;;;;;-144.99;100.00;52325.81;5028623;28;20503;-70
2023/08/30 03:57:07;;;;;;;;;;;;;;;-144.99;100.00;52329.88;5026699;28;20524;-70
2023/08/30 03:59:33;;;;;;;;;;;;;;;-144.99;100.00;52333.94;5024389;28;20010;-69
2023/08/30 04:02:01;;;;;;;;;;;;;;;-144.99;100.00;52354.34;5029359;28;20053;-64
2023/08/30 04:04:28;;;;;;;;;;;;;;;-144.99;100.00;52358.41;5029162;28;19987;-71
2023/08/30 04:06:54;;;;;;;;;;;;;;;-144.99;100.00;52321.72;5025819;28;20183;-71
2023/08/30 04:09:21;;;;;;;;;;;;;;;-144.99;100.00;52317.66;5023969;28;20412;-68
2023/08/30 04:11:47;;;;;;;;;;;;;;;-144.99;100.00;52329.88;5026394;28;19968;-67
2023/08/30 04:14:13;;;;;;;;;;;;;;;-144.99;100.00;52342.09;5028023;28;20449;-67
2023/08/30 04:16:40;;;;;;;;;;;;;;;-144.99;100.00;52329.88;5027825;28;19979;-67
2023/08/30 04:19:08;;;;;;;;;;;;;;;-144.99;100.00;52329.88;5024077;28;20156;-68
2023/08/30 04:21:34;;;;;;;;;;;;;;;-144.99;100.00;52354.34;5023421;28;19954;-68
2023/08/30 04:24:01;;;;;;;;;;;;;;;-144.99;100.00;52342.09;5026178;28;19945;-68
2023/08/30 04:26:27;;;;;;;;;;;;;;;-144.99;100.00;52336.00;5023613;28;20407;-69
2023/08/30 04:28:54;;;;;;;;;;;;;;;-144.99;100.00;52356.38;5026493;28;20383;-69
2023/08/30 04:31:20;;;;;;;;;;;;;;;-144.99;100.00;52342.09;5024791;28;20305;-69
2023/08/30 04:33:47;;;;;;;;;;;;;;;-144.99;100.00;52350.25;5017958;28;20055;-70
2023/08/30 04:36:14;;;;;;;;;;;;;;;-144.99;100.00;52362.50;5021227;28;20045;-69
2023/08/30 04:38:41;;;;;;;;;;;;;;;-144.99;100.00;52346.19;5033216;28;20035;-67
2023/08/30 04:41:07;;;;;;;;;;;;;;;-144.99;100.00;52309.50;5027009;28;20386;-70
2023/08/30 04:43:34;;;;;;;;;;;;;;;-144.99;100.00;52323.75;5023895;28;20301;-69
2023/08/30 04:46:00;;;;;;;;;;;;;;;-144.99;100.00;52338.03;5020783;28;19959;-69
2023/08/30 04:48:27;;;;;;;;;;;;;;;-144.99;100.00;52313.56;5026073;28;20032;-69
2023/08/30 04:50:59;;;;;;;;;;;;;;;-144.99;100.00;52309.50;5054177;22;20455;-68
2023/08/30 04:53:27;;;;;;;;;;;;;;;-144.99;100.00;52333.94;5043743;28;20483;-69
2023/08/30 04:55:53;;;;;;;;;;;;;;;-144.99;100.00;52340.06;5048142;28;19951;-68
2023/08/30 04:58:20;;;;;;;;;;;;;;;-144.99;100.00;52342.09;5044814;28;19988;-68
2023/08/30 05:00:46;;;;;;;;;;;;;;;-144.99;100.00;52307.47;5039278;28;20411;-74
2023/08/30 05:03:13;;;;;;;;;;;;;;;-144.99;100.00;52309.50;5046209;28;19997;-74
2023/08/30 05:05:39;;;;;;;;;;;;;;;-144.99;100.00;52333.94;5042679;28;19978;-76
2023/08/30 05:08:05;;;;;;;;;;;;;;;-144.99;100.00;52346.19;5046872;28;19942;-75
2023/08/30 05:10:33;;;;;;;;;;;;;;;-144.99;100.00;52333.94;5062685;28;20334;-74
2023/08/30 05:12:59;;;;;;;;;;;;;;;-144.99;100.00;52317.66;5050634;28;21381;-77
2023/08/30 05:15:26;;;;;;;;;;;;;;;-144.99;100.00;52301.34;4697276;28;10000353;-76
2023/08/30 05:17:52;;;;;;;;;;;;;;;-144.99;100.00;52350.25;5042757;28;19946;-75
2023/08/30 05:20:19;;;;;;;;;;;;;;;-144.99;100.00;52317.66;5050356;28;20045;-75
2023/08/30 05:22:45;;;;;;;;;;;;;;;-144.99;100.00;52313.56;5045626;28;20522;-76
2023/08/30 05:25:12;;;;;;;;;;;;;;;-144.99;100.00;52313.56;5039997;28;20037;-77
2023/08/30 05:27:40;;;;;;;;;;;;;;;-144.99;100.00;52350.25;5041995;28;19960;-75
2023/08/30 05:30:07;;;;;;;;;;;;;;;-144.99;100.00;52323.75;5039974;28;19976;-74
2023/08/30 05:32:34;;;;;;;;;;;;;;;-144.99;100.00;52319.69;5045284;28;20070;-74
2023/08/30 05:35:00;;;;;;;;;;;;;;;-144.99;100.00;52342.09;5044938;28;19951;-75
2023/08/30 05:37:26;;;;;;;;;;;;;;;-144.99;100.00;52342.09;5044018;28;19944;-73
2023/08/30 05:39:53;;;;;;;;;;;;;;;-144.99;100.00;52305.41;5045353;28;20050;-72
2023/08/30 05:42:20;;;;;;;;;;;;;;;-144.99;100.00;52321.72;5048302;28;20060;-74
2023/08/30 05:44:48;;;;;;;;;;;;;;;-144.99;100.00;52248.34;5049079;28;19988;-74
2023/08/30 05:47:15;;;;;;;;;;;;;;;-144.99;100.00;52289.13;5045011;28;19958;-74
2023/08/30 05:49:41;;;;;;;;;;;;;;;-144.99;100.00;52317.66;5042192;28;19942;-74
2023/08/30 05:52:08;;;;;;;;;;;;;;;-144.99;100.00;52293.19;5038091;28;20238;-74
2023/08/30 05:54:34;;;;;;;;;;;;;;;-144.99;100.00;52325.81;5042658;28;20001;-74
2023/08/30 05:57:01;;;;;;;;;;;;;;;-144.99;100.00;52319.69;5044352;28;19989;-73
2023/08/30 05:59:27;;;;;;;;;;;;;;;-144.99;100.00;52360.44;5046741;28;20377;-74
2023/08/30 06:01:55;;;;;;;;;;;;;;;-144.99;100.00;52333.94;5048933;28;20379;-74
2023/08/30 06:04:22;;;;;;;;;;;;;;;-144.99;100.00;52289.13;5047369;28;19943;-74
2023/08/30 06:06:48;;;;;;;;;;;;;;;-144.99;100.00;52321.72;5045960;28;20496;-75
2023/08/30 06:09:15;;;;;;;;;;;;;;;-144.99;100.00;52317.66;5047123;28;20019;-74
2023/08/30 06:11:41;;;;;;;;;;;;;;;-144.99;100.00;52293.19;5045649;28;20389;-74
2023/08/30 06:14:08;;;;;;;;;;;;;;;-144.99;100.00;52313.56;5039789;28;20338;-74
2023/08/30 06:16:35;;;;;;;;;;;;;;;-144.99;100.00;52340.06;5048334;28;20361;-74
2023/08/30 06:19:03;;;;;;;;;;;;;;;-144.99;100.00;52260.56;5046189;28;20038;-74
2023/08/30 06:21:29;;;;;;;;;;;;;;;-144.99;100.00;52297.25;5042483;28;20025;-78
2023/08/30 06:23:56;;;;;;;;;;;;;;;-144.99;100.00;52329.88;5048702;28;20035;-73
2023/08/30 06:26:22;;;;;;;;;;;;;;;-144.99;100.00;52285.03;5043511;28;20127;-75
2023/08/30 06:28:49;;;;;;;;;;;;;;;-144.99;100.00;52329.88;5045197;28;20069;-75
2023/08/30 06:31:15;;;;;;;;;;;;;;;-144.99;100.00;52297.25;5046600;28;20366;-74
2023/08/30 06:33:42;;;;;;;;;;;;;;;-144.99;100.00;52321.72;5044600;28;20048;-73
2023/08/30 06:36:11;;;;;;;;;;;;;;;-144.99;100.00;52276.88;5046839;28;19964;-73
2023/08/30 06:38:37;;;;;;;;;;;;;;;-144.99;100.00;52317.66;5045199;28;19939;-74
2023/08/30 06:41:04;;;;;;;;;;;;;;;-144.99;100.00;52313.56;5043661;28;19942;-75
2023/08/30 06:43:30;;;;;;;;;;;;;;;-144.99;100.00;52268.72;5048634;28;20046;-74
2023/08/30 06:45:58;;;;;;;;;;;;;;;-144.99;100.00;52260.56;5046705;28;19950;-73
2023/08/30 06:48:24;;;;;;;;;;;;;;;-144.99;100.00;52256.50;5048194;28;20322;-74
2023/08/30 06:50:51;;;;;;;;;;;;;;;-144.99;100.00;52256.50;5046435;28;19996;-74
2023/08/30 06:53:19;;;;;;;;;;;;;;;-144.99;100.00;52293.19;5048128;28;19955;-74
2023/08/30 06:55:45;;;;;;;;;;;;;;;-144.99;100.00;52264.66;5039168;28;19951;-73
2023/08/30 06:58:12;;;;;;;;;;;;;;;-144.99;100.00;52266.69;5043247;28;19940;-74
2023/08/30 07:00:38;;;;;;;;;;;;;;;-144.99;100.00;52287.06;5035867;28;20425;-73
2023/08/30 07:03:05;;;;;;;;;;;;;;;-144.99;100.00;52297.25;5043912;28;19961;-74
2023/08/30 07:05:31;;;;;;;;;;;;;;;-144.99;100.00;52313.56;5036165;28;20001;-74
2023/08/30 07:07:58;;;;;;;;;;;;;;;-144.99;100.00;52280.97;5047410;28;20028;-75
2023/08/30 07:10:26;;;;;;;;;;;;;;;-144.99;100.00;52293.19;5039841;28;19939;-75
2023/08/30 07:12:52;;;;;;;;;;;;;;;-144.99;100.00;52333.94;5044801;28;19983;-75
2023/08/30 07:15:19;;;;;;;;;;;;;;;-144.99;100.00;52338.03;5040402;28;19946;-75
2023/08/30 07:17:46;;;;;;;;;;;;;;;-144.99;100.00;52305.41;5048242;28;19991;-75
2023/08/30 07:20:12;;;;;;;;;;;;;;;-144.99;100.00;52297.25;5050483;28;19995;-73
2023/08/30 07:22:39;;;;;;;;;;;;;;;-144.99;100.00;52309.50;5049414;28;19962;-75
2023/08/30 07:25:06;;;;;;;;;;;;;;;-144.99;100.00;52287.06;5045950;28;19939;-75
2023/08/30 07:27:35;;;;;;;;;;;;;;;-144.99;100.00;52256.50;5038289;28;20012;-74
2023/08/30 07:30:01;;;;;;;;;;;;;;;-144.99;100.00;52264.66;5036311;28;20089;-74
2023/08/30 07:32:28;;;;;;;;;;;;;;;-144.99;100.00;52309.50;5046791;28;19961;-74
2023/08/30 07:34:54;;;;;;;;;;;;;;;-144.99;100.00;52285.03;5036930;28;19950;-73
2023/08/30 07:37:21;;;;;;;;;;;;;;;-144.99;100.00;52293.19;5047201;28;20018;-73
2023/08/30 07:39:48;;;;;;;;;;;;;;;-144.99;100.00;52293.19;5046953;28;20291;-73
2023/08/30 07:42:14;;;;;;;;;;;;;;;-144.99;100.00;52256.50;5040310;28;20469;-73
2023/08/30 07:44:42;;;;;;;;;;;;;;;-144.99;100.00;52299.31;5047384;28;19944;-73
2023/08/30 07:47:08;;;;;;;;;;;;;;;-144.99;100.00;52317.66;5040003;28;20102;-75
2023/08/30 07:49:35;;;;;;;;;;;;;;;-144.99;100.00;52242.22;5047530;28;20375;-73
2023/08/30 07:52:02;;;;;;;;;;;;;;;-144.99;100.00;52291.16;5043027;28;20001;-73
2023/08/30 07:54:29;;;;;;;;;;;;;;;-144.99;98.46;52248.34;5040409;28;20397;-74
2023/08/30 07:56:55;;;;;;;;;;;;;;;-144.99;97.12;52219.81;5042448;28;20033;-74
2023/08/30 07:59:22;;;;;;;;;;;;;;;-144.99;96.65;52268.72;5046959;28;19948;-74
2023/08/30 08:01:51;;;;;;;;;;;;;;;-144.99;95.30;52272.81;5046348;28;19948;-74
2023/08/30 08:04:18;;;;;;;;;;;;;;;-144.99;95.24;52280.97;5043517;28;19939;-74
2023/08/30 08:06:44;;;;;;;;;;;;;;;-144.99;94.44;52264.66;5046560;28;20318;-74
2023/08/30 08:09:11;;;;;;;;;;;;;;;-144.99;93.82;52256.50;5046624;28;20386;-74
2023/08/30 08:11:39;;;;;;;;;;;;;;;-144.99;93.13;52256.50;5042666;28;19947;-74
2023/08/30 08:14:06;;;;;;;;;;;;;;;-144.99;93.03;52244.28;5043036;28;19952;-73
2023/08/30 08:16:32;;;;;;;;;;;;;;;-144.99;92.26;52293.19;5047906;28;19941;-74
2023/08/30 08:19:01;;;;;;;;;;;;;;;-144.99;91.26;52221.84;5047131;28;19971;-75
2023/08/30 08:21:28;;;;;;;;;;;;;;;-144.99;90.42;52205.53;5049177;28;19943;-76
2023/08/30 08:23:54;;;;;;;;;;;;;;;-144.99;90.47;52264.66;5047007;28;20200;-74
2023/08/30 08:26:21;;;;;;;;;;;;;;;-144.99;89.97;52211.66;5044230;28;20027;-77
2023/08/30 08:28:47;;;;;;;;;;;;;;;-144.99;89.74;52236.13;5041068;28;19966;-76
2023/08/30 08:31:14;;;;;;;;;;;;;;;-144.99;89.45;52227.97;5043448;28;20370;-76
2023/08/30 08:33:41;;;;;;;;;;;;;;;-144.99;89.39;52236.13;5042542;28;19957;-75
2023/08/30 08:36:08;;;;;;;;;;;;;;;-144.99;88.82;52266.69;5040659;28;20037;-75
2023/08/30 08:38:35;;;;;;;;;;;;;;;-144.99;89.27;52268.72;5045703;28;19947;-75
2023/08/30 08:41:03;;;;;;;;;;;;;;;-144.99;88.26;52248.34;5057927;28;20067;-78
2023/08/30 08:43:30;;;;;;;;;;;;;;;-144.99;87.51;52272.81;5069991;28;19960;-77
2023/08/30 08:45:59;;;;;;;;;;;;;;;-144.99;88.57;52264.66;5040089;28;19986;-74
2023/08/30 08:48:26;;;;;;;;;;;;;;;-144.99;89.04;52268.72;5042095;28;20497;-74
2023/08/30 08:50:53;;;;;;;;;;;;;;;-144.99;89.18;52217.78;5045542;28;19950;-73
2023/08/30 08:53:21;;;;;;;;;;;;;;;-144.99;87.23;52256.50;5044631;28;20241;-76
2023/08/30 08:55:49;;;;;;;;;;;;;;;-144.99;85.84;52297.25;5043010;28;20083;-74
2023/08/30 08:58:16;;;;;;;;;;;;;;;-144.99;85.79;52232.03;5038318;28;20016;-74
2023/08/30 09:00:43;;;;;;;;;;;;;;;-144.99;85.30;52264.66;5037482;28;19992;-74
2023/08/30 09:03:09;;;;;;;;;;;;;;;-144.99;82.32;52203.50;5043848;28;19959;-77
2023/08/30 09:05:38;;;;;;;;;;;;;;;-144.99;79.37;52236.13;5046395;28;20034;-74
2023/08/30 09:08:05;;;;;;;;;;;;;;;-144.99;78.06;52219.81;5042607;28;20034;-74
2023/08/30 09:10:34;;;;;;;;;;;;;;;-144.99;78.77;52199.44;5046836;28;19976;-74
2023/08/30 09:13:00;;;;;;;;;;;;;;;-144.99;78.17;52252.44;5033071;28;19993;-75
2023/08/30 09:15:31;;;;;;;;;;;;;;;-144.99;77.50;52225.94;5041573;28;20034;-74
2023/08/30 09:17:58;;;;;;;;;;;;;;;-144.99;76.69;52248.34;5047408;28;19949;-76
2023/08/30 09:20:24;;;;;;;;;;;;;;;-144.99;77.67;52250.38;5050601;28;20009;-74
2023/08/30 09:22:51;;;;;;;;;;;;;;;-144.99;76.70;52248.34;5044567;28;20454;-74
2023/08/30 09:25:23;;;;;;;;;;;;;;;-144.99;74.94;52227.97;5053137;28;20056;-75
2023/08/30 09:27:51;;;;;;;;;;;;;;;-144.99;75.76;52207.59;5048767;28;20414;-75
2023/08/30 09:30:22;;;;;;;;;;;;;;;-144.99;74.80;52258.53;5046660;28;19945;-74
2023/08/30 09:32:48;;;;;;;;;;;;;;;-144.99;75.01;52219.81;5049550;28;20017;-75
2023/08/30 09:35:15;;;;;;;;;;;;;;;-144.99;74.52;52258.53;5046447;28;19984;-74
2023/08/30 09:37:41;;;;;;;;;;;;;;;-144.99;73.07;52223.88;5048915;28;20309;-75
2023/08/30 09:40:08;;;;;;;;;;;;;;;-144.99;73.47;52227.97;5043093;28;20066;-75
2023/08/30 09:42:35;;;;;;;;;;;;;;;-144.99;73.54;52203.50;5046345;28;20010;-75
2023/08/30 09:45:05;;;;;;;;;;;;;;;-144.99;74.80;52248.34;5040418;28;20070;-76
2023/08/30 09:47:31;;;;;;;;;;;;;;;-144.99;74.73;52223.88;5049265;28;20054;-75
2023/08/30 09:49:59;;;;;;;;;;;;;;;-144.99;74.51;52223.88;5048810;28;19955;-76
2023/08/30 09:52:27;;;;;;;;;;;;;;;-144.99;75.22;52248.34;5045870;28;19995;-76
2023/08/30 09:54:53;;;;;;;;;;;;;;;-144.99;74.60;52217.78;5047528;28;19946;-75
2023/08/30 09:57:22;;;;;;;;;;;;;;;-144.99;76.33;52256.50;5049224;28;19953;-75
2023/08/30 09:59:49;;;;;;;;;;;;;;;-144.99;76.34;52232.03;5049055;28;19946;-75
2023/08/30 10:02:18;;;;;;;;;;;;;;;-144.99;75.67;52223.88;5045376;28;19984;-75
2023/08/30 10:04:45;;;;;;;;;;;;;;;-144.99;75.22;52219.81;5050476;28;19950;-75
2023/08/30 10:07:12;;;;;;;;;;;;;;;-144.99;72.93;52223.88;5049625;28;19946;-74
2023/08/30 10:09:39;;;;;;;;;;;;;;;-144.99;72.66;52223.88;5044813;28;19940;-74
2023/08/30 10:12:07;;;;;;;;;;;;;;;-144.99;72.34;52215.75;5047951;28;20060;-75
2023/08/30 10:14:33;;;;;;;;;;;;;;;-144.99;71.88;52219.81;5049210;28;19983;-74
2023/08/30 10:17:03;;;;;;;;;;;;;;;-144.99;71.30;52179.06;5049413;28;20016;-75
2023/08/30 10:19:31;;;;;;;;;;;;;;;-144.99;72.51;52185.16;5049296;28;20362;-75
2023/08/30 10:22:02;;;;;;;;;;;;;;;-144.99;72.35;52185.16;5038385;28;19965;-75
2023/08/30 10:24:29;;;;;;;;;;;;;;;-144.99;71.77;52215.75;5044732;28;19969;-76
2023/08/30 10:26:56;;;;;;;;;;;;;;;-144.99;70.88;52154.59;5047179;28;20003;-75
2023/08/30 10:29:24;;;;;;;;;;;;;;;-144.99;70.91;52195.34;5046767;28;19971;-75
2023/08/30 10:31:50;;;;;;;;;;;;;;;-144.99;70.64;52193.31;5049288;28;20193;-74
2023/08/30 10:34:18;;;;;;;;;;;;;;;-144.99;70.34;52177.00;5054545;28;19941;-75
2023/08/30 10:36:57;;;;;;;;;;;;;;;-144.99;70.89;52181.09;5053336;28;19973;-75
2023/08/30 10:39:28;;;;;;;;;;;;;;;-144.99;69.59;52174.97;5052551;28;20412;-75
2023/08/30 10:41:55;;;;;;;;;;;;;;;-144.99;68.98;52142.38;5060043;28;19952;-75
2023/08/30 10:44:22;;;;;;;;;;;;;;;-144.99;67.06;52117.91;5057499;28;20028;-75
2023/08/30 10:46:53;;;;;;;;;;;;;;;-144.99;66.39;52097.53;5066825;28;19947;-75
2023/08/30 10:49:19;;;;;;;;;;;;;;;-144.99;67.00;52203.50;5068597;28;19944;-75
2023/08/30 10:51:55;;;;;;;;;;;;;;;-144.99;67.85;52105.69;5070921;28;19969;-76
2023/08/30 10:54:23;;;;;;;;;;;;;;;-144.99;67.66;52203.50;5063909;28;19942;-76
2023/08/30 10:56:55;;;;;;;;;;;;;;;-144.99;68.35;52162.75;5071081;28;19926;-75
2023/08/30 10:59:22;;;;;;;;;;;;;;;-144.99;67.44;52130.13;5070776;28;19948;-76
2023/08/30 11:01:50;;;;;;;;;;;;;;;-144.99;68.16;52105.69;5068611;28;19946;-76
2023/08/30 11:04:17;;;;;;;;;;;;;;;-144.99;67.55;52174.97;5070387;28;19946;-75
2023/08/30 11:06:45;;;;;;;;;;;;;;;-144.99;66.93;52191.28;5060660;28;19946;-75
2023/08/30 11:09:17;;;;;;;;;;;;;;;-144.99;67.48;52113.84;5065061;28;19958;-80
2023/08/30 11:11:44;;;;;;;;;;;;;;;-144.99;67.13;52201.47;5063301;28;19962;-75
2023/08/30 11:14:10;;;;;;;;;;;;;;;-144.99;67.80;52217.78;5065019;28;19954;-68
2023/08/30 11:16:37;;;;;;;;;;;;;;;-144.99;68.40;52217.78;5058380;28;19947;-76
2023/08/30 11:19:04;;;;;;;;;;;;;;;-144.99;68.00;52236.13;5049848;28;19949;-75
2023/08/30 11:21:31;;;;;;;;;;;;;;;-144.99;67.95;52197.41;5059405;28;20010;-75
2023/08/30 11:23:58;;;;;;;;;;;;;;;-144.99;67.77;52185.16;5061860;28;19966;-74
2023/08/30 11:26:26;;;;;;;;;;;;;;;-144.99;68.22;52105.69;5057305;28;19982;-75
2023/08/30 11:28:53;;;;;;;;;;;;;;;-144.99;68.03;52215.75;5061391;28;19940;-79
2023/08/30 11:31:22;;;;;;;;;;;;;;;-144.99;68.57;52223.88;5073830;28;20134;-78
2023/08/30 11:33:52;;;;;;;;;;;;;;;-144.99;68.04;52240.19;5074956;28;19951;-77
2023/08/30 11:36:19;;;;;;;;;;;;;;;-144.99;68.14;52203.50;5071173;28;19926;-78
2023/08/30 11:38:46;;;;;;;;;;;;;;;-144.99;68.36;52225.94;5073744;28;19939;-76
2023/08/30 11:41:13;;;;;;;;;;;;;;;-144.99;68.29;52238.16;5063788;28;20184;-75
2023/08/30 11:43:41;;;;;;;;;;;;;;;-144.99;69.12;52252.44;5074195;28;19951;-79
2023/08/30 11:46:08;;;;;;;;;;;;;;;-144.99;69.18;52203.50;5076950;28;19943;-75
2023/08/30 11:48:35;;;;;;;;;;;;;;;-144.99;69.40;52256.50;5077223;28;19945;-77
2023/08/30 11:51:02;;;;;;;;;;;;;;;-144.99;69.46;52232.03;5072753;28;19940;-77
2023/08/30 11:53:28;;;;;;;;;;;;;;;-144.99;69.29;52283.00;5072244;28;19960;-74
2023/08/30 11:55:55;;;;;;;;;;;;;;;-144.99;69.41;52260.56;5074242;28;19934;-75
2023/08/30 11:58:21;;;;;;;;;;;;;;;-144.99;69.86;52258.53;5070189;28;19966;-77
2023/08/30 12:00:51;;;;;;;;;;;;;;;-144.99;70.32;52285.03;5073673;28;19943;-74
2023/08/30 12:03:18;;;;;;;;;;;;;;;-144.99;70.07;52238.16;5065106;28;19958;-77
2023/08/30 12:05:47;;;;;;;;;;;;;;;-144.99;70.21;52264.66;5076439;28;19947;-76
2023/08/30 12:08:24;;;;;;;;;;;;;;;-144.99;70.49;52252.44;5071128;28;19946;-75
2023/08/30 12:10:51;;;;;;;;;;;;;;;-144.99;69.45;52111.78;5063055;28;20031;-75
2023/08/30 12:13:21;;;;;;;;;;;;;;;-144.99;68.10;52101.59;5069154;28;19947;-77
2023/08/30 12:15:47;;;;;;;;;;;;;;;-144.99;67.16;52081.22;5076153;28;19932;-76
2023/08/30 12:18:15;;;;;;;;;;;;;;;-144.99;66.91;52105.69;5070432;28;20029;-75
2023/08/30 12:20:52;;;;;;;;;;;;;;;-144.99;66.00;52121.97;5067617;28;19935;-75